createdAt,value
2018-06-19T00:01:15.204Z,14.60
2018-06-19T00:03:43.764Z,14.60
2018-06-19T00:06:12.203Z,14.60
2018-06-19T00:08:40.585Z,14.70
2018-06-19T00:11:09.838Z,14.70
2018-06-19T00:13:38.210Z,14.70
2018-06-19T00:16:06.651Z,14.70
2018-06-19T00:18:37.744Z,14.80
2018-06-19T00:21:12.055Z,14.80
2018-06-19T00:23:40.443Z,14.70
2018-06-19T00:26:08.875Z,14.80
2018-06-19T00:28:40.180Z,14.80
2018-06-19T00:31:08.608Z,14.70
2018-06-19T00:33:37.007Z,14.60
2018-06-19T00:36:05.389Z,14.50
2018-06-19T00:38:33.783Z,14.50
2018-06-19T00:41:02.485Z,14.50
2018-06-19T00:43:30.891Z,14.50
2018-06-19T00:45:59.904Z,14.50
2018-06-19T00:48:28.302Z,14.50
2018-06-19T00:50:56.933Z,14.50
2018-06-19T00:53:25.355Z,14.50
2018-06-19T00:55:53.769Z,14.50
2018-06-19T00:58:22.167Z,14.60
2018-06-19T01:00:50.548Z,14.60
2018-06-19T01:03:18.991Z,14.60
2018-06-19T01:05:47.403Z,14.60
2018-06-19T01:08:15.815Z,14.60
2018-06-19T01:13:12.319Z,14.50
2018-06-19T01:15:40.711Z,14.50
2018-06-19T01:18:09.193Z,14.60
2018-06-19T01:20:37.583Z,14.70
2018-06-19T01:23:06.140Z,14.70
2018-06-19T01:25:34.551Z,14.80
2018-06-19T01:28:02.938Z,14.80
2018-06-19T01:30:31.348Z,14.80
2018-06-19T01:32:59.739Z,14.80
2018-06-19T01:35:28.152Z,14.90
2018-06-19T01:37:56.571Z,14.90
2018-06-19T01:40:25.016Z,14.90
2018-06-19T01:42:53.418Z,14.80
2018-06-19T01:45:21.827Z,14.80
2018-06-19T01:50:18.381Z,14.80
2018-06-19T01:52:46.760Z,14.80
2018-06-19T01:55:15.171Z,14.90
2018-06-19T01:57:43.572Z,14.90
2018-06-19T02:00:12.000Z,14.90
2018-06-19T02:02:40.388Z,15.00
2018-06-19T02:05:08.820Z,15.00
2018-06-19T02:07:37.212Z,15.00
2018-06-19T02:10:05.617Z,14.90
2018-06-19T02:12:34.011Z,14.90
2018-06-19T02:15:02.388Z,14.90
2018-06-19T02:17:30.795Z,14.90
2018-06-19T02:19:59.167Z,14.80
2018-06-19T02:22:27.551Z,14.70
2018-06-19T02:24:55.959Z,14.70
2018-06-19T02:27:24.379Z,14.70
2018-06-19T02:29:52.751Z,14.60
2018-06-19T02:32:21.157Z,14.50
2018-06-19T02:34:49.524Z,14.50
2018-06-19T02:37:17.919Z,14.40
2018-06-19T02:39:46.309Z,14.30
2018-06-19T02:44:42.801Z,14.30
2018-06-19T02:47:11.203Z,14.30
2018-06-19T02:49:39.581Z,14.30
2018-06-19T02:52:07.995Z,14.30
2018-06-19T02:54:36.373Z,14.30
2018-06-19T02:57:04.870Z,14.30
2018-06-19T02:59:33.239Z,14.30
2018-06-19T03:02:01.632Z,14.20
2018-06-19T03:04:30.060Z,14.20
2018-06-19T03:06:58.443Z,14.20
2018-06-19T03:09:26.856Z,14.10
2018-06-19T03:11:55.255Z,14.00
2018-06-19T03:14:23.789Z,13.90
2018-06-19T03:16:52.191Z,13.90
2018-06-19T03:19:20.624Z,13.90
2018-06-19T03:21:49.014Z,13.80
2018-06-19T03:24:17.415Z,13.90
2018-06-19T03:26:45.955Z,13.80
2018-06-19T03:29:14.356Z,13.80
2018-06-19T03:34:10.868Z,13.70
2018-06-19T03:36:39.260Z,13.70
2018-06-19T03:39:09.512Z,13.70
2018-06-19T03:41:37.943Z,13.80
2018-06-19T03:44:06.371Z,13.90
2018-06-19T03:46:34.748Z,14.10
2018-06-19T03:49:03.664Z,14.30
2018-06-19T03:51:32.231Z,14.50
2018-06-19T03:54:00.843Z,14.70
2018-06-19T03:56:29.284Z,14.80
2018-06-19T03:58:57.683Z,14.80
2018-06-19T04:01:26.075Z,14.90
2018-06-19T04:03:54.596Z,14.90
2018-06-19T04:06:23.180Z,15.10
2018-06-19T04:08:51.584Z,15.40
2018-06-19T04:11:20.008Z,15.60
2018-06-19T04:13:48.417Z,15.80
2018-06-19T04:16:16.844Z,15.90
2018-06-19T04:18:45.299Z,16.00
2018-06-19T04:21:13.712Z,16.10
2018-06-19T04:23:42.109Z,16.20
2018-06-19T04:26:10.542Z,16.40
2018-06-19T04:28:38.937Z,16.60
2018-06-19T04:31:10.399Z,16.90
2018-06-19T04:33:38.793Z,17.30
2018-06-19T04:36:07.233Z,17.60
2018-06-19T04:38:35.650Z,18.00
2018-06-19T04:41:04.267Z,18.30
2018-06-19T04:43:32.671Z,18.70
2018-06-19T04:46:01.109Z,19.00
2018-06-19T04:48:29.909Z,19.20
2018-06-19T04:50:58.372Z,19.40
2018-06-19T04:53:26.779Z,19.80
2018-06-19T04:55:55.200Z,20.10
2018-06-19T04:58:23.635Z,20.50
2018-06-19T05:00:52.063Z,20.70
2018-06-19T05:03:20.467Z,21.00
2018-06-19T05:05:48.871Z,21.30
2018-06-19T05:08:17.256Z,21.70
2018-06-19T05:10:45.661Z,22.00
2018-06-19T05:13:14.045Z,22.10
2018-06-19T05:15:42.471Z,22.20
2018-06-19T05:18:10.864Z,22.80
2018-06-19T05:20:39.252Z,23.40
2018-06-19T05:23:07.674Z,24.20
2018-06-19T05:25:36.072Z,25.30
2018-06-19T05:28:04.517Z,26.30
2018-06-19T05:30:32.900Z,27.10
2018-06-19T05:33:01.303Z,28.10
2018-06-19T05:35:29.690Z,28.70
2018-06-19T05:37:58.111Z,29.10
2018-06-19T05:40:26.567Z,29.40
2018-06-19T05:42:54.972Z,29.70
2018-06-19T05:45:23.360Z,29.80
2018-06-19T05:47:51.769Z,29.80
2018-06-19T05:50:20.155Z,29.80
2018-06-19T05:52:48.566Z,29.80
2018-06-19T05:55:16.961Z,29.70
2018-06-19T05:57:45.408Z,28.40
2018-06-19T06:00:13.815Z,28.10
2018-06-19T06:02:42.211Z,28.10
2018-06-19T06:05:10.628Z,27.80
2018-06-19T06:07:39.031Z,27.90
2018-06-19T06:10:07.461Z,27.30
2018-06-19T06:12:35.864Z,25.40
2018-06-19T06:15:04.328Z,23.80
2018-06-19T06:17:32.736Z,22.60
2018-06-19T06:20:01.136Z,23.00
2018-06-19T06:22:29.555Z,24.60
2018-06-19T06:24:57.936Z,25.80
2018-06-19T06:27:26.364Z,26.50
2018-06-19T06:29:54.749Z,27.30
2018-06-19T06:32:23.123Z,28.00
2018-06-19T06:34:51.523Z,28.00
2018-06-19T06:37:19.908Z,26.90
2018-06-19T06:42:16.405Z,24.00
2018-06-19T06:44:44.823Z,23.30
2018-06-19T06:47:13.212Z,24.10
2018-06-19T06:49:41.608Z,24.30
2018-06-19T06:52:10.036Z,23.80
2018-06-19T06:54:38.440Z,23.10
2018-06-19T06:57:06.827Z,22.30
2018-06-19T06:59:35.231Z,22.10
2018-06-19T07:02:03.627Z,23.20
2018-06-19T07:04:32.048Z,24.60
2018-06-19T07:07:00.588Z,26.10
2018-06-19T07:09:29.015Z,26.50
2018-06-19T07:11:57.456Z,26.90
2018-06-19T07:14:25.924Z,27.40
2018-06-19T07:16:54.294Z,27.40
2018-06-19T07:19:22.743Z,26.70
2018-06-19T07:21:51.081Z,26.40
2018-06-19T07:24:19.518Z,26.30
2018-06-19T07:26:48.032Z,26.30
2018-06-19T07:29:16.453Z,26.70
2018-06-19T07:31:44.867Z,26.90
2018-06-19T07:34:13.244Z,26.80
2018-06-19T07:36:41.728Z,26.50
2018-06-19T07:39:10.872Z,26.80
2018-06-19T07:41:39.293Z,26.80
2018-06-19T07:44:07.698Z,27.10
2018-06-19T07:46:36.339Z,27.30
2018-06-19T07:49:04.737Z,26.90
2018-06-19T07:51:33.136Z,26.60
2018-06-19T07:54:01.868Z,26.40
2018-06-19T07:56:30.292Z,27.10
2018-06-19T07:58:58.704Z,27.70
2018-06-19T08:01:27.108Z,27.00
2018-06-19T08:06:23.715Z,25.60
2018-06-19T08:08:52.107Z,25.90
2018-06-19T08:11:20.507Z,26.70
2018-06-19T08:13:48.888Z,27.50
2018-06-19T08:16:17.301Z,27.80
2018-06-19T08:18:45.717Z,27.60
2018-06-19T08:21:14.099Z,27.40
2018-06-19T08:23:42.485Z,27.60
2018-06-19T08:26:10.909Z,27.70
2018-06-19T08:31:07.617Z,27.20
2018-06-19T08:33:36.021Z,27.10
2018-06-19T08:36:04.412Z,27.20
2018-06-19T08:38:32.816Z,27.00
2018-06-19T08:41:01.197Z,27.10
2018-06-19T08:43:29.599Z,27.80
2018-06-19T08:45:57.975Z,28.20
2018-06-19T08:48:26.396Z,28.20
2018-06-19T08:50:54.916Z,28.00
2018-06-19T08:53:23.323Z,27.10
2018-06-19T08:55:51.715Z,26.50
2018-06-19T08:58:20.117Z,26.80
2018-06-19T09:00:48.501Z,27.10
2018-06-19T09:03:16.929Z,27.10
2018-06-19T09:05:52.092Z,27.20
2018-06-19T09:08:20.566Z,27.80
2018-06-19T09:10:48.961Z,28.50
2018-06-19T09:13:17.379Z,29.00
2018-06-19T09:15:45.800Z,29.80
2018-06-19T09:18:14.206Z,29.60
2018-06-19T09:20:42.598Z,28.20
2018-06-19T09:23:11.039Z,27.00
2018-06-19T09:25:39.428Z,26.10
2018-06-19T09:28:07.823Z,26.60
2018-06-19T09:30:36.210Z,27.70
2018-06-19T09:33:04.657Z,28.90
2018-06-19T09:35:33.044Z,29.40
2018-06-19T09:38:01.438Z,29.40
2018-06-19T09:40:29.869Z,29.50
2018-06-19T09:42:58.256Z,29.30
2018-06-19T09:45:26.678Z,28.70
2018-06-19T09:47:55.060Z,28.30
2018-06-19T09:50:23.480Z,28.20
2018-06-19T09:52:51.948Z,28.50
2018-06-19T09:55:20.349Z,28.90
2018-06-19T09:57:48.800Z,29.50
2018-06-19T10:00:22.276Z,30.00
2018-06-19T10:02:50.732Z,31.00
2018-06-19T10:05:19.188Z,31.70
2018-06-19T10:07:47.612Z,31.50
2018-06-19T10:10:16.028Z,31.00
2018-06-19T10:12:44.416Z,30.10
2018-06-19T10:15:12.847Z,29.10
2018-06-19T10:17:42.546Z,28.50
2018-06-19T10:20:10.980Z,28.10
2018-06-19T10:22:39.402Z,28.40
2018-06-19T10:25:08.000Z,28.90
2018-06-19T10:27:36.391Z,29.20
2018-06-19T10:30:05.228Z,29.30
2018-06-19T10:32:33.641Z,29.20
2018-06-19T10:35:02.114Z,29.00
2018-06-19T10:37:30.857Z,28.80
2018-06-19T10:39:59.889Z,28.60
2018-06-19T10:42:28.310Z,28.40
2018-06-19T10:44:56.697Z,28.30
2018-06-19T10:47:25.258Z,28.60
2018-06-19T10:49:53.656Z,28.60
2018-06-19T10:52:22.064Z,28.60
2018-06-19T10:54:50.448Z,28.40
2018-06-19T10:57:18.865Z,29.00
2018-06-19T11:02:15.381Z,29.50
2018-06-19T11:04:43.804Z,29.30
2018-06-19T11:09:40.376Z,28.60
2018-06-19T11:12:08.812Z,28.70
2018-06-19T11:14:37.205Z,28.60
2018-06-19T11:17:05.680Z,28.20
2018-06-19T11:19:34.135Z,27.90
2018-06-19T11:22:02.556Z,27.80
2018-06-19T11:24:30.967Z,27.90
2018-06-19T11:26:59.395Z,27.80
2018-06-19T11:29:27.835Z,27.70
2018-06-19T11:31:56.276Z,27.50
2018-06-19T11:34:24.683Z,27.40
2018-06-19T11:39:21.224Z,28.20
2018-06-19T11:41:49.642Z,28.20
2018-06-19T11:44:18.076Z,28.10
2018-06-19T11:46:46.513Z,28.00
2018-06-19T11:49:14.945Z,28.20
2018-06-19T11:51:43.416Z,28.40
2018-06-19T11:54:11.870Z,28.40
2018-06-19T11:56:40.510Z,28.60
2018-06-19T11:59:08.943Z,29.10
2018-06-19T12:01:37.343Z,29.40
2018-06-19T12:04:05.815Z,29.00
2018-06-19T12:06:34.211Z,28.40
2018-06-19T12:09:02.687Z,27.90
2018-06-19T12:11:31.116Z,27.70
2018-06-19T12:13:59.540Z,27.60
2018-06-19T12:16:27.987Z,27.50
2018-06-19T12:19:02.933Z,27.50
2018-06-19T12:21:31.364Z,27.70
2018-06-19T12:23:59.854Z,28.00
2018-06-19T12:26:28.288Z,28.40
2018-06-19T12:28:56.707Z,28.80
2018-06-19T12:31:25.124Z,28.90
2018-06-19T12:36:21.904Z,28.90
2018-06-19T12:38:50.339Z,29.00
2018-06-19T12:41:18.743Z,29.20
2018-06-19T12:43:47.168Z,29.20
2018-06-19T12:46:15.589Z,29.40
2018-06-19T12:48:44.004Z,29.20
2018-06-19T12:52:00.857Z,28.60
2018-06-19T12:54:38.997Z,28.10
2018-06-19T12:57:07.406Z,27.80
2018-06-19T12:59:35.840Z,27.80
2018-06-19T13:02:04.280Z,28.00
2018-06-19T13:04:44.152Z,28.00
2018-06-19T13:07:12.539Z,28.20
2018-06-19T13:09:40.980Z,28.70
2018-06-19T13:12:24.469Z,29.00
2018-06-19T13:14:52.911Z,29.10
2018-06-19T13:18:35.624Z,28.90
2018-06-19T13:21:04.093Z,28.90
2018-06-19T13:23:32.847Z,28.70
2018-06-19T13:26:01.400Z,28.70
2018-06-19T13:28:41.132Z,28.90
2018-06-19T13:31:20.980Z,29.00
2018-06-19T13:33:49.385Z,29.20
2018-06-19T13:36:17.816Z,29.80
2018-06-19T13:38:46.217Z,30.10
2018-06-19T13:41:27.227Z,29.90
2018-06-19T13:44:08.737Z,29.70
2018-06-19T13:46:37.145Z,29.20
2018-06-19T13:49:05.585Z,28.70
2018-06-19T13:51:34.015Z,28.30
2018-06-19T13:54:02.433Z,28.00
2018-06-19T13:57:45.844Z,27.80
2018-06-19T14:00:17.133Z,27.60
2018-06-19T14:02:45.558Z,27.50
2018-06-19T14:05:14.909Z,27.40
2018-06-19T14:08:05.075Z,27.30
2018-06-19T14:13:07.067Z,27.30
2018-06-19T14:15:37.620Z,27.40
2018-06-19T14:18:06.471Z,27.00
2018-06-19T14:20:35.120Z,26.70
2018-06-19T14:23:10.203Z,26.50
2018-06-19T14:25:38.599Z,26.50
2018-06-19T14:28:07.068Z,26.30
2018-06-19T14:30:35.460Z,26.30
2018-06-19T14:33:03.922Z,26.40
2018-06-19T14:35:32.318Z,26.40
2018-06-19T14:38:00.722Z,26.50
2018-06-19T14:40:29.190Z,26.40
2018-06-19T14:42:57.616Z,26.50
2018-06-19T14:45:26.046Z,26.50
2018-06-19T14:47:54.437Z,26.50
2018-06-19T14:50:22.862Z,26.80
2018-06-19T14:52:51.248Z,26.80
2018-06-19T14:55:19.652Z,27.00
2018-06-19T14:57:48.044Z,27.40
2018-06-19T15:00:16.459Z,27.60
2018-06-19T15:02:44.841Z,27.70
2018-06-19T15:05:13.272Z,27.40
2018-06-19T15:07:46.993Z,27.00
2018-06-19T15:10:15.773Z,27.00
2018-06-19T15:12:44.240Z,26.60
2018-06-19T15:15:12.659Z,26.50
2018-06-19T15:17:41.056Z,26.40
2018-06-19T15:20:09.468Z,26.10
2018-06-19T15:22:37.854Z,26.00
2018-06-19T15:25:06.301Z,26.10
2018-06-19T15:27:34.684Z,26.20
2018-06-19T15:30:03.185Z,26.10
2018-06-19T15:32:31.580Z,26.10
2018-06-19T15:34:59.999Z,26.20
2018-06-19T15:37:28.404Z,26.30
2018-06-19T15:39:56.805Z,26.20
2018-06-19T15:42:25.206Z,26.30
2018-06-19T15:44:53.607Z,26.30
2018-06-19T15:47:22.012Z,26.30
2018-06-19T15:49:50.482Z,26.10
2018-06-19T15:52:18.896Z,26.10
2018-06-19T15:54:47.431Z,26.10
2018-06-19T15:57:15.826Z,26.10
2018-06-19T15:59:44.399Z,25.90
2018-06-19T16:02:12.792Z,25.60
2018-06-19T16:04:41.223Z,25.40
2018-06-19T16:07:09.612Z,25.30
2018-06-19T16:09:38.024Z,25.20
2018-06-19T16:12:06.432Z,25.10
2018-06-19T16:14:34.826Z,25.00
2018-06-19T16:17:03.244Z,24.90
2018-06-19T16:21:59.749Z,25.00
2018-06-19T16:24:28.144Z,25.10
2018-06-19T16:26:56.560Z,25.10
2018-06-19T16:29:25.000Z,25.10
2018-06-19T16:31:53.371Z,25.00
2018-06-19T16:34:21.755Z,24.90
2018-06-19T16:36:50.176Z,24.80
2018-06-19T16:39:18.568Z,24.70
2018-06-19T16:41:46.981Z,24.80
2018-06-19T16:44:15.364Z,24.90
2018-06-19T16:46:43.775Z,24.80
2018-06-19T16:49:12.169Z,24.70
2018-06-19T16:51:40.580Z,24.60
2018-06-19T16:54:08.968Z,24.70
2018-06-19T16:56:37.372Z,24.80
2018-06-19T16:59:05.769Z,24.70
2018-06-19T17:01:34.164Z,24.70
2018-06-19T17:04:02.603Z,24.80
2018-06-19T17:06:31.054Z,24.70
2018-06-19T17:08:59.443Z,24.50
2018-06-19T17:11:27.861Z,24.40
2018-06-19T17:13:56.253Z,24.20
2018-06-19T17:16:24.636Z,24.10
2018-06-19T17:18:53.038Z,23.90
2018-06-19T17:21:21.441Z,23.80
2018-06-19T17:23:49.843Z,23.70
2018-06-19T17:26:18.236Z,23.80
2018-06-19T17:28:46.644Z,23.70
2018-06-19T17:31:15.036Z,23.80
2018-06-19T17:33:43.444Z,23.90
2018-06-19T17:36:11.836Z,23.90
2018-06-19T17:38:40.232Z,23.90
2018-06-19T17:43:36.738Z,23.90
2018-06-19T17:46:05.172Z,23.80
2018-06-19T17:48:33.600Z,23.80
2018-06-19T17:51:01.981Z,23.70
2018-06-19T17:53:30.397Z,23.70
2018-06-19T17:55:58.784Z,23.60
2018-06-19T17:58:27.201Z,23.60
2018-06-19T18:00:55.616Z,23.60
2018-06-19T18:03:24.062Z,23.50
2018-06-19T18:05:52.500Z,23.50
2018-06-19T18:08:20.934Z,23.50
2018-06-19T18:10:49.344Z,23.40
2018-06-19T18:13:17.772Z,23.40
2018-06-19T18:15:46.205Z,23.30
2018-06-19T18:18:14.661Z,23.30
2018-06-19T18:20:43.098Z,23.20
2018-06-19T18:23:11.543Z,23.00
2018-06-19T18:25:39.945Z,22.80
2018-06-19T18:28:08.415Z,22.80
2018-06-19T18:30:36.820Z,22.70
2018-06-19T18:33:05.288Z,22.70
2018-06-19T18:35:33.764Z,22.50
2018-06-19T18:38:02.167Z,22.40
2018-06-19T18:40:30.594Z,22.30
2018-06-19T18:42:59.007Z,22.10
2018-06-19T18:45:27.436Z,21.90
2018-06-19T18:47:55.839Z,21.60
2018-06-19T18:50:24.264Z,21.50
2018-06-19T18:52:52.688Z,21.30
2018-06-19T18:55:21.120Z,21.20
2018-06-19T18:57:49.535Z,21.00
2018-06-19T19:00:17.959Z,20.90
2018-06-19T19:02:46.363Z,20.90
2018-06-19T19:05:14.792Z,20.90
2018-06-19T19:07:43.199Z,20.80
2018-06-19T19:10:16.904Z,20.70
2018-06-19T19:12:45.286Z,20.70
2018-06-19T19:15:19.158Z,20.70
2018-06-19T19:17:52.911Z,20.60
2018-06-19T19:20:21.316Z,20.50
2018-06-19T19:22:49.708Z,20.40
2018-06-19T19:25:18.137Z,20.30
2018-06-19T19:27:51.984Z,20.10
2018-06-19T19:30:20.416Z,20.00
2018-06-19T19:32:48.805Z,19.90
2018-06-19T19:35:17.248Z,19.80
2018-06-19T19:40:19.120Z,19.50
2018-06-19T19:42:47.564Z,19.40
2018-06-19T19:45:15.988Z,19.40
2018-06-19T19:47:49.844Z,19.40
2018-06-19T19:50:18.249Z,19.40
2018-06-19T19:52:46.846Z,19.40
2018-06-19T19:55:15.245Z,19.30
2018-06-19T19:57:48.920Z,19.30
2018-06-19T20:00:22.477Z,19.20
2018-06-19T20:02:50.864Z,19.00
2018-06-19T20:05:19.312Z,18.80
2018-06-19T20:07:47.696Z,18.70
2018-06-19T20:10:16.175Z,18.60
2018-06-19T20:15:18.477Z,18.50
2018-06-19T20:17:46.992Z,18.50
2018-06-19T20:20:15.379Z,18.50
2018-06-19T20:22:43.759Z,18.50
2018-06-19T20:25:13.011Z,18.50
2018-06-19T20:27:41.395Z,18.50
2018-06-19T20:30:10.430Z,18.50
2018-06-19T20:32:38.914Z,18.40
2018-06-19T20:35:07.370Z,18.40
2018-06-19T20:37:35.783Z,18.30
2018-06-19T20:40:04.577Z,18.30
2018-06-19T20:42:33.001Z,18.20
2018-06-19T20:45:01.433Z,18.10
2018-06-19T20:47:30.291Z,17.90
2018-06-19T20:49:59.104Z,17.80
2018-06-19T20:52:28.097Z,17.90
2018-06-19T20:54:56.549Z,17.90
2018-06-19T20:57:24.966Z,17.90
2018-06-19T20:59:53.348Z,17.90
2018-06-19T21:02:21.756Z,17.90
2018-06-19T21:04:50.183Z,17.80
2018-06-19T21:07:18.620Z,17.80
2018-06-19T21:09:47.085Z,17.70
2018-06-19T21:12:16.012Z,17.70
2018-06-19T21:14:44.421Z,17.60
2018-06-19T21:17:12.835Z,17.50
2018-06-19T21:19:41.233Z,17.40
2018-06-19T21:22:09.660Z,17.30
2018-06-19T21:24:38.068Z,17.20
2018-06-19T21:27:07.026Z,17.20
2018-06-19T21:29:35.536Z,17.20
2018-06-19T21:32:04.053Z,17.20
2018-06-19T21:34:32.469Z,17.20
2018-06-19T21:37:00.916Z,17.20
2018-06-19T21:39:29.336Z,17.20
2018-06-19T21:41:57.747Z,17.10
2018-06-19T21:44:26.188Z,17.10
2018-06-19T21:46:54.647Z,17.10
2018-06-19T21:49:23.077Z,17.10
2018-06-19T21:51:51.481Z,17.10
2018-06-19T21:54:19.911Z,17.10
2018-06-19T21:56:48.304Z,17.10
2018-06-19T21:59:16.727Z,17.00
2018-06-19T22:01:45.140Z,17.00
2018-06-19T22:04:13.579Z,16.90
2018-06-19T22:06:41.984Z,16.90
2018-06-19T22:09:10.429Z,16.80
2018-06-19T22:11:38.865Z,16.70
2018-06-19T22:14:07.292Z,16.70
2018-06-19T22:16:35.688Z,16.70
2018-06-19T22:19:04.118Z,16.50
2018-06-19T22:21:32.516Z,16.40
2018-06-19T22:24:00.940Z,16.20
2018-06-19T22:26:29.346Z,16.20
2018-06-19T22:28:57.780Z,16.20
2018-06-19T22:31:26.188Z,16.10
2018-06-19T22:33:54.625Z,16.10
2018-06-19T22:36:23.041Z,16.10
2018-06-19T22:38:51.469Z,16.20
2018-06-19T22:41:19.873Z,16.20
2018-06-19T22:43:48.288Z,16.20
2018-06-19T22:46:16.686Z,16.20
2018-06-19T22:48:45.123Z,16.20
2018-06-19T22:51:13.566Z,16.20
2018-06-19T22:53:41.964Z,16.20
2018-06-19T22:56:10.391Z,16.20
2018-06-19T22:58:38.833Z,16.20
2018-06-19T23:01:07.255Z,16.20
2018-06-19T23:03:35.655Z,16.20
2018-06-19T23:06:04.107Z,16.30
2018-06-19T23:08:34.753Z,16.30
2018-06-19T23:11:03.466Z,16.20
2018-06-19T23:13:31.851Z,16.20
2018-06-19T23:16:00.256Z,16.00
2018-06-19T23:18:28.640Z,15.80
2018-06-19T23:20:57.035Z,15.70
2018-06-19T23:23:25.439Z,15.70
2018-06-19T23:25:53.849Z,15.70
2018-06-19T23:30:58.423Z,15.80
2018-06-19T23:33:26.819Z,15.70
2018-06-19T23:35:55.225Z,15.50
2018-06-19T23:38:23.620Z,15.40
2018-06-19T23:40:52.045Z,15.30
2018-06-19T23:43:20.445Z,15.10
2018-06-19T23:45:48.848Z,15.00
2018-06-19T23:48:17.231Z,15.10
2018-06-19T23:50:45.627Z,15.10
2018-06-19T23:53:14.008Z,15.20
2018-06-19T23:55:42.471Z,15.30
2018-06-19T23:58:10.852Z,15.40
